sensor_id;sensor_type;location;lat;lon;timestamp;P1;durP1;ratioP1;P2;durP2;ratioP2
24084;SDS011;12268;52.110;5.548;2023-05-14T00:02:08;25.48;;;16.27;;
24084;SDS011;12268;52.110;5.548;2023-05-14T00:04:34;28.95;;;18.27;;
24084;SDS011;12268;52.110;5.548;2023-05-14T00:07:00;27.02;;;18.40;;
24084;SDS011;12268;52.110;5.548;2023-05-14T00:09:25;34.05;;;18.85;;
24084;SDS011;12268;52.110;5.548;2023-05-14T00:11:51;31.77;;;18.90;;
24084;SDS011;12268;52.110;5.548;2023-05-14T00:14:16;30.85;;;18.50;;
24084;SDS011;12268;52.110;5.548;2023-05-14T00:16:42;27.48;;;18.67;;
24084;SDS011;12268;52.110;5.548;2023-05-14T00:19:07;26.75;;;18.10;;
24084;SDS011;12268;52.110;5.548;2023-05-14T00:21:33;27.52;;;18.52;;
24084;SDS011;12268;52.110;5.548;2023-05-14T00:23:58;30.58;;;18.55;;
24084;SDS011;12268;52.110;5.548;2023-05-14T00:26:24;29.27;;;18.92;;
24084;SDS011;12268;52.110;5.548;2023-05-14T00:28:49;32.15;;;17.73;;
24084;SDS011;12268;52.110;5.548;2023-05-14T00:31:15;30.83;;;19.05;;
24084;SDS011;12268;52.110;5.548;2023-05-14T00:33:40;26.30;;;17.58;;
24084;SDS011;12268;52.110;5.548;2023-05-14T00:36:06;31.38;;;19.08;;
24084;SDS011;12268;52.110;5.548;2023-05-14T00:38:32;29.02;;;18.67;;
24084;SDS011;12268;52.110;5.548;2023-05-14T00:40:57;32.78;;;18.45;;
24084;SDS011;12268;52.110;5.548;2023-05-14T00:43:23;26.98;;;18.13;;
24084;SDS011;12268;52.110;5.548;2023-05-14T00:45:50;28.30;;;18.27;;
24084;SDS011;12268;52.110;5.548;2023-05-14T00:48:17;27.08;;;17.65;;
24084;SDS011;12268;52.110;5.548;2023-05-14T00:50:44;28.77;;;17.92;;
24084;SDS011;12268;52.110;5.548;2023-05-14T00:53:10;30.25;;;18.75;;
24084;SDS011;12268;52.110;5.548;2023-05-14T00:55:39;31.88;;;18.77;;
24084;SDS011;12268;52.110;5.548;2023-05-14T00:58:08;28.33;;;17.23;;
24084;SDS011;12268;52.110;5.548;2023-05-14T01:00:35;31.70;;;17.25;;
24084;SDS011;12268;52.110;5.548;2023-05-14T01:03:01;33.35;;;18.25;;
24084;SDS011;12268;52.110;5.548;2023-05-14T01:05:35;30.73;;;18.88;;
24084;SDS011;12268;52.110;5.548;2023-05-14T01:08:24;29.98;;;18.23;;
24084;SDS011;12268;52.110;5.548;2023-05-14T01:11:10;29.40;;;17.90;;
24084;SDS011;12268;52.110;5.548;2023-05-14T01:13:45;26.90;;;17.58;;
24084;SDS011;12268;52.110;5.548;2023-05-14T01:16:18;27.50;;;18.55;;
24084;SDS011;12268;52.110;5.548;2023-05-14T01:18:45;29.63;;;17.23;;
24084;SDS011;12268;52.110;5.548;2023-05-14T01:24:04;30.05;;;18.42;;
24084;SDS011;12268;52.110;5.548;2023-05-14T01:26:31;30.40;;;18.52;;
24084;SDS011;12268;52.110;5.548;2023-05-14T01:29:10;29.50;;;17.52;;
24084;SDS011;12268;52.110;5.548;2023-05-14T01:31:43;28.10;;;17.77;;
24084;SDS011;12268;52.110;5.548;2023-05-14T01:34:11;30.90;;;17.10;;
24084;SDS011;12268;52.110;5.548;2023-05-14T01:36:39;28.27;;;17.30;;
24084;SDS011;12268;52.110;5.548;2023-05-14T01:39:05;28.38;;;16.45;;
24084;SDS011;12268;52.110;5.548;2023-05-14T01:41:35;27.25;;;16.83;;
24084;SDS011;12268;52.110;5.548;2023-05-14T01:44:03;27.88;;;16.77;;
24084;SDS011;12268;52.110;5.548;2023-05-14T01:46:32;24.63;;;17.35;;
24084;SDS011;12268;52.110;5.548;2023-05-14T01:48:58;31.90;;;17.60;;
24084;SDS011;12268;52.110;5.548;2023-05-14T01:51:24;27.65;;;16.75;;
24084;SDS011;12268;52.110;5.548;2023-05-14T01:53:50;28.85;;;17.15;;
24084;SDS011;12268;52.110;5.548;2023-05-14T01:56:16;31.40;;;17.70;;
24084;SDS011;12268;52.110;5.548;2023-05-14T01:58:42;30.52;;;17.52;;
24084;SDS011;12268;52.110;5.548;2023-05-14T02:01:07;27.05;;;16.85;;
24084;SDS011;12268;52.110;5.548;2023-05-14T02:03:33;35.20;;;17.92;;
24084;SDS011;12268;52.110;5.548;2023-05-14T02:05:58;29.42;;;17.75;;
24084;SDS011;12268;52.110;5.548;2023-05-14T02:08:24;26.02;;;16.60;;
24084;SDS011;12268;52.110;5.548;2023-05-14T02:10:50;29.25;;;17.55;;
24084;SDS011;12268;52.110;5.548;2023-05-14T02:13:15;26.70;;;17.02;;
24084;SDS011;12268;52.110;5.548;2023-05-14T02:15:41;28.65;;;16.50;;
24084;SDS011;12268;52.110;5.548;2023-05-14T02:18:06;27.05;;;15.90;;
24084;SDS011;12268;52.110;5.548;2023-05-14T02:20:32;36.53;;;16.73;;
24084;SDS011;12268;52.110;5.548;2023-05-14T02:22:57;29.55;;;16.42;;
24084;SDS011;12268;52.110;5.548;2023-05-14T02:25:23;27.58;;;17.00;;
24084;SDS011;12268;52.110;5.548;2023-05-14T02:27:48;31.65;;;16.65;;
24084;SDS011;12268;52.110;5.548;2023-05-14T02:30:14;29.60;;;16.42;;
24084;SDS011;12268;52.110;5.548;2023-05-14T02:32:40;33.13;;;16.90;;
24084;SDS011;12268;52.110;5.548;2023-05-14T02:35:05;28.17;;;16.42;;
24084;SDS011;12268;52.110;5.548;2023-05-14T02:37:31;26.75;;;16.48;;
24084;SDS011;12268;52.110;5.548;2023-05-14T02:39:58;34.33;;;17.33;;
24084;SDS011;12268;52.110;5.548;2023-05-14T02:42:24;30.60;;;15.60;;
24084;SDS011;12268;52.110;5.548;2023-05-14T02:44:50;30.02;;;17.35;;
24084;SDS011;12268;52.110;5.548;2023-05-14T02:47:16;24.67;;;16.33;;
24084;SDS011;12268;52.110;5.548;2023-05-14T02:49:41;32.60;;;17.30;;
24084;SDS011;12268;52.110;5.548;2023-05-14T02:52:07;32.40;;;16.45;;
24084;SDS011;12268;52.110;5.548;2023-05-14T02:54:32;30.63;;;16.33;;
24084;SDS011;12268;52.110;5.548;2023-05-14T02:56:58;33.88;;;18.77;;
24084;SDS011;12268;52.110;5.548;2023-05-14T02:59:23;30.17;;;16.77;;
24084;SDS011;12268;52.110;5.548;2023-05-14T03:01:49;26.48;;;17.13;;
24084;SDS011;12268;52.110;5.548;2023-05-14T03:04:15;30.23;;;17.23;;
24084;SDS011;12268;52.110;5.548;2023-05-14T03:06:40;28.63;;;16.80;;
24084;SDS011;12268;52.110;5.548;2023-05-14T03:09:06;27.00;;;17.00;;
24084;SDS011;12268;52.110;5.548;2023-05-14T03:11:31;29.27;;;17.17;;
24084;SDS011;12268;52.110;5.548;2023-05-14T03:13:57;30.02;;;16.58;;
24084;SDS011;12268;52.110;5.548;2023-05-14T03:16:23;29.20;;;16.95;;
24084;SDS011;12268;52.110;5.548;2023-05-14T03:18:48;25.23;;;16.52;;
24084;SDS011;12268;52.110;5.548;2023-05-14T03:21:14;28.75;;;16.67;;
24084;SDS011;12268;52.110;5.548;2023-05-14T03:23:39;29.30;;;17.90;;
24084;SDS011;12268;52.110;5.548;2023-05-14T03:26:05;35.65;;;17.98;;
24084;SDS011;12268;52.110;5.548;2023-05-14T03:28:31;27.23;;;17.02;;
24084;SDS011;12268;52.110;5.548;2023-05-14T03:30:57;37.35;;;19.05;;
24084;SDS011;12268;52.110;5.548;2023-05-14T03:33:23;29.35;;;18.23;;
24084;SDS011;12268;52.110;5.548;2023-05-14T03:35:48;34.05;;;18.27;;
24084;SDS011;12268;52.110;5.548;2023-05-14T03:38:14;31.40;;;17.10;;
24084;SDS011;12268;52.110;5.548;2023-05-14T03:40:39;38.33;;;17.60;;
24084;SDS011;12268;52.110;5.548;2023-05-14T03:43:05;34.92;;;18.38;;
24084;SDS011;12268;52.110;5.548;2023-05-14T03:45:31;47.75;;;18.75;;
24084;SDS011;12268;52.110;5.548;2023-05-14T03:47:57;38.72;;;18.10;;
24084;SDS011;12268;52.110;5.548;2023-05-14T03:50:22;35.10;;;18.00;;
24084;SDS011;12268;52.110;5.548;2023-05-14T03:52:49;30.73;;;18.95;;
24084;SDS011;12268;52.110;5.548;2023-05-14T03:55:16;29.65;;;17.10;;
24084;SDS011;12268;52.110;5.548;2023-05-14T03:57:43;30.65;;;17.48;;
24084;SDS011;12268;52.110;5.548;2023-05-14T04:00:08;34.05;;;18.35;;
24084;SDS011;12268;52.110;5.548;2023-05-14T04:02:35;35.35;;;17.98;;
24084;SDS011;12268;52.110;5.548;2023-05-14T04:05:00;30.67;;;17.73;;
24084;SDS011;12268;52.110;5.548;2023-05-14T04:07:26;30.48;;;17.90;;
24084;SDS011;12268;52.110;5.548;2023-05-14T04:09:51;33.80;;;17.88;;
24084;SDS011;12268;52.110;5.548;2023-05-14T04:12:17;32.55;;;18.13;;
24084;SDS011;12268;52.110;5.548;2023-05-14T04:14:42;31.23;;;18.35;;
24084;SDS011;12268;52.110;5.548;2023-05-14T04:17:08;30.70;;;17.38;;
24084;SDS011;12268;52.110;5.548;2023-05-14T04:19:33;29.63;;;17.05;;
24084;SDS011;12268;52.110;5.548;2023-05-14T04:21:59;35.38;;;18.45;;
24084;SDS011;12268;52.110;5.548;2023-05-14T04:24:24;39.90;;;16.52;;
24084;SDS011;12268;52.110;5.548;2023-05-14T04:26:50;33.55;;;18.67;;
24084;SDS011;12268;52.110;5.548;2023-05-14T04:29:15;35.75;;;17.50;;
24084;SDS011;12268;52.110;5.548;2023-05-14T04:31:41;31.92;;;18.02;;
24084;SDS011;12268;52.110;5.548;2023-05-14T04:34:07;30.10;;;16.95;;
24084;SDS011;12268;52.110;5.548;2023-05-14T04:36:32;31.10;;;17.73;;
24084;SDS011;12268;52.110;5.548;2023-05-14T04:38:58;32.72;;;17.98;;
24084;SDS011;12268;52.110;5.548;2023-05-14T04:41:23;33.70;;;17.92;;
24084;SDS011;12268;52.110;5.548;2023-05-14T04:43:49;31.90;;;17.83;;
24084;SDS011;12268;52.110;5.548;2023-05-14T04:46:14;33.55;;;17.20;;
24084;SDS011;12268;52.110;5.548;2023-05-14T04:48:40;32.80;;;18.42;;
24084;SDS011;12268;52.110;5.548;2023-05-14T04:51:06;31.65;;;17.77;;
24084;SDS011;12268;52.110;5.548;2023-05-14T04:53:31;38.20;;;18.73;;
24084;SDS011;12268;52.110;5.548;2023-05-14T04:55:57;29.98;;;18.05;;
24084;SDS011;12268;52.110;5.548;2023-05-14T04:58:22;33.22;;;18.42;;
24084;SDS011;12268;52.110;5.548;2023-05-14T05:00:48;30.45;;;16.40;;
24084;SDS011;12268;52.110;5.548;2023-05-14T05:03:14;32.25;;;16.88;;
24084;SDS011;12268;52.110;5.548;2023-05-14T05:05:39;33.50;;;19.17;;
24084;SDS011;12268;52.110;5.548;2023-05-14T05:08:05;31.73;;;16.85;;
24084;SDS011;12268;52.110;5.548;2023-05-14T05:10:30;28.65;;;16.58;;
24084;SDS011;12268;52.110;5.548;2023-05-14T05:12:56;29.20;;;17.75;;
24084;SDS011;12268;52.110;5.548;2023-05-14T05:15:22;29.23;;;16.40;;
24084;SDS011;12268;52.110;5.548;2023-05-14T05:17:47;27.15;;;16.15;;
24084;SDS011;12268;52.110;5.548;2023-05-14T05:20:13;26.90;;;15.93;;
24084;SDS011;12268;52.110;5.548;2023-05-14T05:22:38;30.17;;;14.80;;
24084;SDS011;12268;52.110;5.548;2023-05-14T05:25:04;25.67;;;15.82;;
24084;SDS011;12268;52.110;5.548;2023-05-14T05:27:30;33.85;;;15.85;;
24084;SDS011;12268;52.110;5.548;2023-05-14T05:29:57;26.45;;;15.00;;
24084;SDS011;12268;52.110;5.548;2023-05-14T05:32:22;26.60;;;15.52;;
24084;SDS011;12268;52.110;5.548;2023-05-14T05:34:48;24.23;;;14.65;;
24084;SDS011;12268;52.110;5.548;2023-05-14T05:37:15;25.17;;;14.48;;
24084;SDS011;12268;52.110;5.548;2023-05-14T05:39:41;26.25;;;15.18;;
24084;SDS011;12268;52.110;5.548;2023-05-14T05:42:07;23.70;;;15.27;;
24084;SDS011;12268;52.110;5.548;2023-05-14T05:44:32;23.20;;;14.15;;
24084;SDS011;12268;52.110;5.548;2023-05-14T05:46:58;28.88;;;14.23;;
24084;SDS011;12268;52.110;5.548;2023-05-14T05:49:24;25.90;;;14.38;;
24084;SDS011;12268;52.110;5.548;2023-05-14T05:51:50;27.58;;;14.20;;
24084;SDS011;12268;52.110;5.548;2023-05-14T05:54:15;28.30;;;15.20;;
24084;SDS011;12268;52.110;5.548;2023-05-14T05:56:41;23.08;;;14.10;;
24084;SDS011;12268;52.110;5.548;2023-05-14T05:59:06;22.27;;;13.93;;
24084;SDS011;12268;52.110;5.548;2023-05-14T06:01:32;23.48;;;13.93;;
24084;SDS011;12268;52.110;5.548;2023-05-14T06:03:57;23.13;;;14.82;;
24084;SDS011;12268;52.110;5.548;2023-05-14T06:06:23;23.38;;;14.85;;
24084;SDS011;12268;52.110;5.548;2023-05-14T06:08:48;23.90;;;13.98;;
24084;SDS011;12268;52.110;5.548;2023-05-14T06:11:14;28.33;;;14.93;;
24084;SDS011;12268;52.110;5.548;2023-05-14T06:13:40;25.23;;;14.10;;
24084;SDS011;12268;52.110;5.548;2023-05-14T06:16:06;21.48;;;13.63;;
24084;SDS011;12268;52.110;5.548;2023-05-14T06:18:32;22.73;;;13.93;;
24084;SDS011;12268;52.110;5.548;2023-05-14T06:20:57;24.48;;;15.10;;
24084;SDS011;12268;52.110;5.548;2023-05-14T06:23:24;20.27;;;13.15;;
24084;SDS011;12268;52.110;5.548;2023-05-14T06:25:50;24.27;;;14.02;;
24084;SDS011;12268;52.110;5.548;2023-05-14T06:28:16;23.73;;;13.77;;
24084;SDS011;12268;52.110;5.548;2023-05-14T06:30:41;24.73;;;13.82;;
24084;SDS011;12268;52.110;5.548;2023-05-14T06:33:07;24.52;;;14.05;;
24084;SDS011;12268;52.110;5.548;2023-05-14T06:35:32;18.75;;;13.02;;
24084;SDS011;12268;52.110;5.548;2023-05-14T06:37:58;22.67;;;13.65;;
24084;SDS011;12268;52.110;5.548;2023-05-14T06:40:24;18.60;;;13.18;;
24084;SDS011;12268;52.110;5.548;2023-05-14T06:42:49;22.23;;;13.65;;
24084;SDS011;12268;52.110;5.548;2023-05-14T06:45:15;19.20;;;13.57;;
24084;SDS011;12268;52.110;5.548;2023-05-14T06:47:41;21.13;;;13.38;;
24084;SDS011;12268;52.110;5.548;2023-05-14T06:50:06;23.30;;;13.98;;
24084;SDS011;12268;52.110;5.548;2023-05-14T06:52:32;18.63;;;12.80;;
24084;SDS011;12268;52.110;5.548;2023-05-14T06:54:58;19.63;;;13.75;;
24084;SDS011;12268;52.110;5.548;2023-05-14T06:57:23;19.52;;;12.57;;
24084;SDS011;12268;52.110;5.548;2023-05-14T06:59:49;23.20;;;13.23;;
24084;SDS011;12268;52.110;5.548;2023-05-14T07:02:14;19.42;;;13.23;;
24084;SDS011;12268;52.110;5.548;2023-05-14T07:04:40;19.58;;;13.20;;
24084;SDS011;12268;52.110;5.548;2023-05-14T07:07:05;22.48;;;13.45;;
24084;SDS011;12268;52.110;5.548;2023-05-14T07:09:31;18.00;;;12.90;;
24084;SDS011;12268;52.110;5.548;2023-05-14T07:11:57;21.10;;;13.57;;
24084;SDS011;12268;52.110;5.548;2023-05-14T07:14:22;20.80;;;12.73;;
24084;SDS011;12268;52.110;5.548;2023-05-14T07:16:48;19.58;;;13.27;;
24084;SDS011;12268;52.110;5.548;2023-05-14T07:19:13;19.40;;;13.85;;
24084;SDS011;12268;52.110;5.548;2023-05-14T07:21:39;19.52;;;12.40;;
24084;SDS011;12268;52.110;5.548;2023-05-14T07:24:05;22.08;;;12.25;;
24084;SDS011;12268;52.110;5.548;2023-05-14T07:26:31;18.88;;;12.18;;
24084;SDS011;12268;52.110;5.548;2023-05-14T07:28:56;17.95;;;12.57;;
24084;SDS011;12268;52.110;5.548;2023-05-14T07:31:22;19.05;;;12.32;;
24084;SDS011;12268;52.110;5.548;2023-05-14T07:33:47;16.48;;;12.27;;
24084;SDS011;12268;52.110;5.548;2023-05-14T07:36:13;18.65;;;12.20;;
24084;SDS011;12268;52.110;5.548;2023-05-14T07:38:38;16.85;;;11.70;;
24084;SDS011;12268;52.110;5.548;2023-05-14T07:41:04;16.58;;;12.25;;
24084;SDS011;12268;52.110;5.548;2023-05-14T07:43:30;19.63;;;10.90;;
24084;SDS011;12268;52.110;5.548;2023-05-14T07:45:55;17.77;;;10.82;;
24084;SDS011;12268;52.110;5.548;2023-05-14T07:48:21;13.98;;;10.82;;
24084;SDS011;12268;52.110;5.548;2023-05-14T07:50:47;21.45;;;11.18;;
24084;SDS011;12268;52.110;5.548;2023-05-14T07:53:13;15.98;;;11.25;;
24084;SDS011;12268;52.110;5.548;2023-05-14T07:55:39;14.80;;;9.98;;
24084;SDS011;12268;52.110;5.548;2023-05-14T07:58:05;14.45;;;10.27;;
24084;SDS011;12268;52.110;5.548;2023-05-14T08:00:31;17.17;;;10.23;;
24084;SDS011;12268;52.110;5.548;2023-05-14T08:02:56;17.48;;;10.23;;
24084;SDS011;12268;52.110;5.548;2023-05-14T08:05:22;13.40;;;10.52;;
24084;SDS011;12268;52.110;5.548;2023-05-14T08:07:47;12.50;;;9.98;;
24084;SDS011;12268;52.110;5.548;2023-05-14T08:10:13;12.75;;;10.77;;
24084;SDS011;12268;52.110;5.548;2023-05-14T08:12:38;16.33;;;11.90;;
24084;SDS011;12268;52.110;5.548;2023-05-14T08:15:04;12.70;;;10.38;;
24084;SDS011;12268;52.110;5.548;2023-05-14T08:17:31;14.43;;;10.98;;
24084;SDS011;12268;52.110;5.548;2023-05-14T08:19:57;16.55;;;11.15;;
24084;SDS011;12268;52.110;5.548;2023-05-14T08:22:22;15.65;;;10.15;;
24084;SDS011;12268;52.110;5.548;2023-05-14T08:24:48;13.98;;;10.75;;
24084;SDS011;12268;52.110;5.548;2023-05-14T08:27:13;15.05;;;10.60;;
24084;SDS011;12268;52.110;5.548;2023-05-14T08:29:40;18.50;;;10.63;;
24084;SDS011;12268;52.110;5.548;2023-05-14T08:32:06;17.52;;;10.98;;
24084;SDS011;12268;52.110;5.548;2023-05-14T08:34:32;14.68;;;11.40;;
24084;SDS011;12268;52.110;5.548;2023-05-14T08:36:58;14.73;;;10.93;;
24084;SDS011;12268;52.110;5.548;2023-05-14T08:39:23;15.38;;;10.63;;
24084;SDS011;12268;52.110;5.548;2023-05-14T08:41:49;17.23;;;10.18;;
24084;SDS011;12268;52.110;5.548;2023-05-14T08:44:19;15.45;;;10.65;;
24084;SDS011;12268;52.110;5.548;2023-05-14T08:46:52;13.55;;;9.93;;
24084;SDS011;12268;52.110;5.548;2023-05-14T08:49:34;16.92;;;10.15;;
24084;SDS011;12268;52.110;5.548;2023-05-14T08:52:10;15.45;;;10.05;;
24084;SDS011;12268;52.110;5.548;2023-05-14T08:54:35;15.68;;;10.25;;
24084;SDS011;12268;52.110;5.548;2023-05-14T08:57:02;14.57;;;9.98;;
24084;SDS011;12268;52.110;5.548;2023-05-14T08:59:28;14.30;;;10.02;;
24084;SDS011;12268;52.110;5.548;2023-05-14T09:01:54;14.27;;;10.27;;
24084;SDS011;12268;52.110;5.548;2023-05-14T09:04:22;17.38;;;9.93;;
24084;SDS011;12268;52.110;5.548;2023-05-14T09:06:49;15.95;;;10.43;;
24084;SDS011;12268;52.110;5.548;2023-05-14T09:09:16;13.48;;;9.52;;
24084;SDS011;12268;52.110;5.548;2023-05-14T09:11:50;14.25;;;9.60;;
24084;SDS011;12268;52.110;5.548;2023-05-14T09:14:17;12.38;;;9.43;;
24084;SDS011;12268;52.110;5.548;2023-05-14T09:16:44;16.02;;;9.82;;
24084;SDS011;12268;52.110;5.548;2023-05-14T09:19:10;12.27;;;9.68;;
24084;SDS011;12268;52.110;5.548;2023-05-14T09:21:37;16.95;;;9.90;;
24084;SDS011;12268;52.110;5.548;2023-05-14T09:24:02;14.43;;;9.23;;
24084;SDS011;12268;52.110;5.548;2023-05-14T09:26:30;11.90;;;10.50;;
24084;SDS011;12268;52.110;5.548;2023-05-14T09:28:56;14.93;;;10.18;;
24084;SDS011;12268;52.110;5.548;2023-05-14T09:31:26;14.27;;;10.13;;
24084;SDS011;12268;52.110;5.548;2023-05-14T09:33:53;15.98;;;10.30;;
24084;SDS011;12268;52.110;5.548;2023-05-14T09:36:19;11.57;;;10.38;;
24084;SDS011;12268;52.110;5.548;2023-05-14T09:38:44;13.80;;;10.15;;
24084;SDS011;12268;52.110;5.548;2023-05-14T09:41:10;12.25;;;10.68;;
24084;SDS011;12268;52.110;5.548;2023-05-14T09:43:36;17.77;;;11.10;;
24084;SDS011;12268;52.110;5.548;2023-05-14T09:46:01;14.35;;;12.30;;
24084;SDS011;12268;52.110;5.548;2023-05-14T09:48:27;13.93;;;11.32;;
24084;SDS011;12268;52.110;5.548;2023-05-14T09:50:53;17.05;;;11.65;;
24084;SDS011;12268;52.110;5.548;2023-05-14T09:53:19;15.80;;;11.20;;
24084;SDS011;12268;52.110;5.548;2023-05-14T09:55:45;15.20;;;11.27;;
24084;SDS011;12268;52.110;5.548;2023-05-14T09:58:11;19.55;;;10.52;;
24084;SDS011;12268;52.110;5.548;2023-05-14T10:00:38;17.65;;;11.10;;
24084;SDS011;12268;52.110;5.548;2023-05-14T10:03:05;15.25;;;11.23;;
24084;SDS011;12268;52.110;5.548;2023-05-14T10:05:35;14.43;;;10.73;;
24084;SDS011;12268;52.110;5.548;2023-05-14T10:10:40;14.27;;;10.60;;
24084;SDS011;12268;52.110;5.548;2023-05-14T10:13:13;13.15;;;10.70;;
24084;SDS011;12268;52.110;5.548;2023-05-14T10:18:09;12.18;;;10.73;;
24084;SDS011;12268;52.110;5.548;2023-05-14T10:23:02;13.13;;;11.68;;
24084;SDS011;12268;52.110;5.548;2023-05-14T10:25:28;13.77;;;10.85;;
24084;SDS011;12268;52.110;5.548;2023-05-14T10:27:54;14.38;;;11.60;;
24084;SDS011;12268;52.110;5.548;2023-05-14T10:30:20;13.00;;;10.20;;
24084;SDS011;12268;52.110;5.548;2023-05-14T10:33:04;16.63;;;11.85;;
24084;SDS011;12268;52.110;5.548;2023-05-14T10:35:31;13.27;;;10.90;;
24084;SDS011;12268;52.110;5.548;2023-05-14T10:38:23;14.77;;;10.85;;
24084;SDS011;12268;52.110;5.548;2023-05-14T10:40:53;13.20;;;11.35;;
24084;SDS011;12268;52.110;5.548;2023-05-14T10:43:20;13.60;;;10.85;;
24084;SDS011;12268;52.110;5.548;2023-05-14T10:45:49;18.15;;;11.30;;
24084;SDS011;12268;52.110;5.548;2023-05-14T10:48:15;12.75;;;10.70;;
24084;SDS011;12268;52.110;5.548;2023-05-14T10:50:41;14.82;;;10.55;;
24084;SDS011;12268;52.110;5.548;2023-05-14T10:53:09;14.68;;;11.25;;
24084;SDS011;12268;52.110;5.548;2023-05-14T10:55:37;16.00;;;12.20;;
24084;SDS011;12268;52.110;5.548;2023-05-14T10:58:02;14.57;;;10.68;;
24084;SDS011;12268;52.110;5.548;2023-05-14T11:00:28;17.48;;;10.95;;
24084;SDS011;12268;52.110;5.548;2023-05-14T11:02:57;12.82;;;10.70;;
24084;SDS011;12268;52.110;5.548;2023-05-14T11:05:23;12.05;;;10.73;;
24084;SDS011;12268;52.110;5.548;2023-05-14T11:07:51;13.95;;;11.40;;
24084;SDS011;12268;52.110;5.548;2023-05-14T11:10:21;13.65;;;10.57;;
24084;SDS011;12268;52.110;5.548;2023-05-14T11:12:47;13.35;;;10.35;;
24084;SDS011;12268;52.110;5.548;2023-05-14T11:15:15;13.98;;;11.13;;
24084;SDS011;12268;52.110;5.548;2023-05-14T11:17:42;17.55;;;10.80;;
24084;SDS011;12268;52.110;5.548;2023-05-14T11:20:09;14.75;;;11.05;;
24084;SDS011;12268;52.110;5.548;2023-05-14T11:22:36;14.35;;;10.07;;
24084;SDS011;12268;52.110;5.548;2023-05-14T11:25:03;13.40;;;10.63;;
24084;SDS011;12268;52.110;5.548;2023-05-14T11:27:30;13.45;;;10.70;;
24084;SDS011;12268;52.110;5.548;2023-05-14T11:29:57;12.70;;;10.95;;
24084;SDS011;12268;52.110;5.548;2023-05-14T11:32:24;14.18;;;10.18;;
24084;SDS011;12268;52.110;5.548;2023-05-14T11:34:50;14.90;;;11.02;;
24084;SDS011;12268;52.110;5.548;2023-05-14T11:37:16;12.43;;;9.90;;
24084;SDS011;12268;52.110;5.548;2023-05-14T11:39:45;10.88;;;9.73;;
24084;SDS011;12268;52.110;5.548;2023-05-14T11:42:16;13.20;;;9.52;;
24084;SDS011;12268;52.110;5.548;2023-05-14T11:44:50;10.82;;;8.65;;
24084;SDS011;12268;52.110;5.548;2023-05-14T11:47:18;11.48;;;9.57;;
24084;SDS011;12268;52.110;5.548;2023-05-14T11:49:45;15.80;;;10.57;;
24084;SDS011;12268;52.110;5.548;2023-05-14T11:52:12;12.13;;;9.18;;
24084;SDS011;12268;52.110;5.548;2023-05-14T11:54:38;13.60;;;10.23;;
24084;SDS011;12268;52.110;5.548;2023-05-14T11:57:06;13.15;;;9.20;;
24084;SDS011;12268;52.110;5.548;2023-05-14T11:59:34;12.93;;;9.70;;
24084;SDS011;12268;52.110;5.548;2023-05-14T12:02:00;12.52;;;9.73;;
24084;SDS011;12268;52.110;5.548;2023-05-14T12:04:26;12.05;;;9.50;;
24084;SDS011;12268;52.110;5.548;2023-05-14T12:06:53;12.02;;;9.38;;
24084;SDS011;12268;52.110;5.548;2023-05-14T12:09:19;15.02;;;9.95;;
24084;SDS011;12268;52.110;5.548;2023-05-14T12:11:45;11.50;;;9.30;;
24084;SDS011;12268;52.110;5.548;2023-05-14T12:14:15;12.73;;;9.27;;
24084;SDS011;12268;52.110;5.548;2023-05-14T12:19:09;15.07;;;9.38;;
24084;SDS011;12268;52.110;5.548;2023-05-14T12:21:37;14.57;;;9.50;;
24084;SDS011;12268;52.110;5.548;2023-05-14T12:24:03;13.93;;;9.02;;
24084;SDS011;12268;52.110;5.548;2023-05-14T12:26:32;12.43;;;8.95;;
24084;SDS011;12268;52.110;5.548;2023-05-14T12:28:59;12.70;;;9.32;;
24084;SDS011;12268;52.110;5.548;2023-05-14T12:31:31;12.57;;;8.23;;
24084;SDS011;12268;52.110;5.548;2023-05-14T12:33:58;12.70;;;8.95;;
24084;SDS011;12268;52.110;5.548;2023-05-14T12:36:24;15.75;;;9.88;;
24084;SDS011;12268;52.110;5.548;2023-05-14T12:38:50;13.63;;;9.65;;
24084;SDS011;12268;52.110;5.548;2023-05-14T12:41:22;12.27;;;8.60;;
24084;SDS011;12268;52.110;5.548;2023-05-14T12:43:48;14.65;;;8.75;;
24084;SDS011;12268;52.110;5.548;2023-05-14T12:46:13;10.60;;;7.97;;
24084;SDS011;12268;52.110;5.548;2023-05-14T12:48:39;12.95;;;9.00;;
24084;SDS011;12268;52.110;5.548;2023-05-14T12:51:05;16.17;;;9.10;;
24084;SDS011;12268;52.110;5.548;2023-05-14T12:53:30;10.70;;;8.40;;
24084;SDS011;12268;52.110;5.548;2023-05-14T12:55:56;12.40;;;8.57;;
24084;SDS011;12268;52.110;5.548;2023-05-14T12:58:21;12.60;;;8.50;;
24084;SDS011;12268;52.110;5.548;2023-05-14T13:00:47;12.40;;;8.55;;
24084;SDS011;12268;52.110;5.548;2023-05-14T13:03:12;15.75;;;8.27;;
24084;SDS011;12268;52.110;5.548;2023-05-14T13:05:38;13.55;;;7.95;;
24084;SDS011;12268;52.110;5.548;2023-05-14T13:08:03;11.68;;;8.05;;
24084;SDS011;12268;52.110;5.548;2023-05-14T13:10:29;13.40;;;8.77;;
24084;SDS011;12268;52.110;5.548;2023-05-14T13:12:55;11.40;;;8.20;;
24084;SDS011;12268;52.110;5.548;2023-05-14T13:15:21;13.85;;;7.78;;
24084;SDS011;12268;52.110;5.548;2023-05-14T13:17:46;10.65;;;7.68;;
24084;SDS011;12268;52.110;5.548;2023-05-14T13:20:12;12.82;;;8.02;;
24084;SDS011;12268;52.110;5.548;2023-05-14T13:22:38;12.20;;;8.43;;
24084;SDS011;12268;52.110;5.548;2023-05-14T13:25:03;9.02;;;7.93;;
24084;SDS011;12268;52.110;5.548;2023-05-14T13:27:31;14.30;;;8.32;;
24084;SDS011;12268;52.110;5.548;2023-05-14T13:29:57;11.98;;;7.30;;
24084;SDS011;12268;52.110;5.548;2023-05-14T13:32:24;11.38;;;7.28;;
24084;SDS011;12268;52.110;5.548;2023-05-14T13:34:49;9.40;;;7.10;;
24084;SDS011;12268;52.110;5.548;2023-05-14T13:37:15;10.95;;;7.07;;
24084;SDS011;12268;52.110;5.548;2023-05-14T13:39:40;9.75;;;6.95;;
24084;SDS011;12268;52.110;5.548;2023-05-14T13:42:06;10.25;;;7.05;;
24084;SDS011;12268;52.110;5.548;2023-05-14T13:44:31;11.05;;;7.13;;
24084;SDS011;12268;52.110;5.548;2023-05-14T13:46:57;13.80;;;8.25;;
24084;SDS011;12268;52.110;5.548;2023-05-14T13:49:22;11.52;;;7.13;;
24084;SDS011;12268;52.110;5.548;2023-05-14T13:51:48;11.52;;;7.22;;
24084;SDS011;12268;52.110;5.548;2023-05-14T13:54:13;9.07;;;7.38;;
24084;SDS011;12268;52.110;5.548;2023-05-14T13:56:39;12.95;;;7.88;;
24084;SDS011;12268;52.110;5.548;2023-05-14T13:59:05;10.65;;;6.60;;
24084;SDS011;12268;52.110;5.548;2023-05-14T14:01:30;8.88;;;6.80;;
24084;SDS011;12268;52.110;5.548;2023-05-14T14:03:56;10.65;;;7.05;;
24084;SDS011;12268;52.110;5.548;2023-05-14T14:06:21;10.00;;;6.68;;
24084;SDS011;12268;52.110;5.548;2023-05-14T14:08:47;11.38;;;7.00;;
24084;SDS011;12268;52.110;5.548;2023-05-14T14:11:13;14.32;;;6.75;;
24084;SDS011;12268;52.110;5.548;2023-05-14T14:13:38;11.13;;;6.45;;
24084;SDS011;12268;52.110;5.548;2023-05-14T14:16:04;9.65;;;6.43;;
24084;SDS011;12268;52.110;5.548;2023-05-14T14:18:30;11.55;;;7.53;;
24084;SDS011;12268;52.110;5.548;2023-05-14T14:20:56;11.07;;;7.40;;
24084;SDS011;12268;52.110;5.548;2023-05-14T14:23:22;10.38;;;7.18;;
24084;SDS011;12268;52.110;5.548;2023-05-14T14:25:47;11.40;;;7.55;;
24084;SDS011;12268;52.110;5.548;2023-05-14T14:28:13;12.75;;;7.68;;
24084;SDS011;12268;52.110;5.548;2023-05-14T14:30:38;11.18;;;7.47;;
24084;SDS011;12268;52.110;5.548;2023-05-14T14:33:04;10.43;;;6.90;;
24084;SDS011;12268;52.110;5.548;2023-05-14T14:35:30;10.98;;;7.68;;